This demonstration page uses our WeatherBlox Daily Observations layout. Learn more.

Left ArrowRight Arrow

39.92423, -83.80882

Hourly Observations for May 8, 2018

Temp ( °F °C ) Dew Point ( °F °C ) Humidity (%) Winds ( mph kmh ) Pressure ( in mb ) Visibility ( mi km ) Precip ( " mm )
12:56 am 00:56 Clear 51 10.6 42 5.6 71 71 ENE 7 11 30.18 1022 10 16.0934 0 0
1:56 am 01:56 Clear 48 8.9 43 6.1 83 83 ENE 7 11 30.18 1022 10 16.0934 0 0
2:56 am 02:56 Clear 50 10 43 6.1 77 77 NNE 5 7 30.17 1022 10 16.0934 0 0
3:56 am 03:56 Clear 47 8.3 42 5.6 83 83 ENE 3 6 30.16 1022 10 16.0934 0 0
4:56 am 04:56 Clear 47 8.3 42 5.6 83 83 N 5 7 30.18 1022 10 16.0934 0 0
5:56 am 05:56 Clear 46 7.8 43 6.1 89 89 Calm 30.17 1022 10 16.0934 0 0
6:56 am 06:56 Sunny 44 6.7 42 5.6 93 93 Calm 30.18 1022 10 16.0934 0 0
7:56 am 07:56 Sunny 49 9.4 45 7.2 86 86 NNW 7 11 30.2 1023 10 16.0934 0 0
8:56 am 08:56 Sunny 55 12.8 45 7.2 69 69 N 5 7 30.21 1023 10 16.0934 0 0
9:56 am 09:56 Sunny 60 15.6 45 7.2 58 58 Calm 30.2 1023 10 16.0934 0.01 0.254
10:56 am 10:56 Sunny 65 18.3 48 8.9 54 54 VRB 3 6 30.21 1023 10 16.0934 0 0
11:56 am 11:56 Sunny 68 20 48 8.9 49 49 Calm 30.19 1022 10 16.0934 0 0
12:56 pm 12:56 Sunny 70 21.1 47 8.3 44 44 Calm 30.18 1022 10 16.0934 0 0
1:56 pm 13:56 Sunny 72 22.2 49 9.4 44 44 WSW 5 7 30.16 1021 10 16.0934 0 0
2:56 pm 14:56 Sunny 74 23.3 48 8.9 40 40 VRB 3 6 30.14 1021 10 16.0934 0 0
3:56 pm 15:56 Sunny 74 23.3 49 9.4 41 41 Calm 30.12 1020 9 14.48406 0 0
4:56 pm 16:56 Sunny 75 23.9 47 8.3 37 37 Calm 30.11 1020 10 16.0934 0 0
5:56 pm 17:56 Sunny 74 23.3 47 8.3 38 38 SSW 6 9 30.1 1019 10 16.0934 0 0
6:56 pm 18:56 Sunny 75 23.9 46 7.8 36 36 E 3 6 30.09 1019 9 14.48406 0 0
7:56 pm 19:56 Sunny 73 22.8 49 9.4 43 43 Calm 30.08 1019 10 16.0934 0 0
8:56 pm 20:56 Clear 68 20 49 9.4 51 51 Calm 30.09 1019 10 16.0934 0 0
9:56 pm 21:56 Clear 63 17.2 51 10.6 65 65 Calm 30.1 1019 10 16.0934 0 0
10:56 pm 22:56 Clear 61 16.1 52 11.1 72 72 ESE 3 6 30.1 1019 10 16.0934 0 0
11:56 pm 23:56 Clear 56 13.3 51 10.6 84 84 E 5 7 30.09 1019 10 16.0934 0 0

Powered by AerisWeather